sensor_id;sensor_type;location;lat;lon;timestamp;pressure;altitude;pressure_sealevel;temperature;humidity
76998;BME280;65930;48.874;10.734;2023-04-06T00:00:05;96246.28;;;1.82;54.19
76998;BME280;65930;48.874;10.734;2023-04-06T00:02:35;96251.28;;;1.80;54.80
76998;BME280;65930;48.874;10.734;2023-04-06T00:05:04;96252.50;;;1.70;54.83
76998;BME280;65930;48.874;10.734;2023-04-06T00:07:33;96251.97;;;1.76;54.27
76998;BME280;65930;48.874;10.734;2023-04-06T00:10:04;96251.06;;;1.72;54.19
76998;BME280;65930;48.874;10.734;2023-04-06T00:12:35;96244.66;;;1.68;55.33
76998;BME280;65930;48.874;10.734;2023-04-06T00:15:03;96244.44;;;1.73;55.46
76998;BME280;65930;48.874;10.734;2023-04-06T00:17:32;96243.50;;;1.57;55.14
76998;BME280;65930;48.874;10.734;2023-04-06T00:20:04;96239.28;;;1.48;55.74
76998;BME280;65930;48.874;10.734;2023-04-06T00:22:32;96241.09;;;1.56;54.61
76998;BME280;65930;48.874;10.734;2023-04-06T00:25:00;96232.47;;;1.66;54.36
76998;BME280;65930;48.874;10.734;2023-04-06T00:27:32;96240.69;;;1.66;54.76
76998;BME280;65930;48.874;10.734;2023-04-06T00:30:00;96238.91;;;1.37;55.49
76998;BME280;65930;48.874;10.734;2023-04-06T00:32:28;96236.72;;;1.30;56.27
76998;BME280;65930;48.874;10.734;2023-04-06T00:34:56;96236.44;;;1.56;55.60
76998;BME280;65930;48.874;10.734;2023-04-06T00:37:24;96232.81;;;1.64;53.79
76998;BME280;65930;48.874;10.734;2023-04-06T00:39:52;96228.47;;;1.63;54.78
76998;BME280;65930;48.874;10.734;2023-04-06T00:42:21;96228.41;;;1.72;53.88
76998;BME280;65930;48.874;10.734;2023-04-06T00:44:55;96220.28;;;1.63;54.71
76998;BME280;65930;48.874;10.734;2023-04-06T00:47:24;96227.16;;;1.82;54.52
76998;BME280;65930;48.874;10.734;2023-04-06T00:49:54;96222.16;;;1.71;54.28
76998;BME280;65930;48.874;10.734;2023-04-06T00:52:24;96207.91;;;1.66;53.70
76998;BME280;65930;48.874;10.734;2023-04-06T00:54:52;96221.31;;;1.59;54.78
76998;BME280;65930;48.874;10.734;2023-04-06T00:57:21;96225.06;;;1.54;55.11
76998;BME280;65930;48.874;10.734;2023-04-06T00:59:49;96220.81;;;1.45;54.99
76998;BME280;65930;48.874;10.734;2023-04-06T01:02:18;96215.19;;;1.62;54.32
76998;BME280;65930;48.874;10.734;2023-04-06T01:04:46;96220.53;;;1.70;53.37
76998;BME280;65930;48.874;10.734;2023-04-06T01:07:14;96216.09;;;1.78;54.03
76998;BME280;65930;48.874;10.734;2023-04-06T01:09:42;96211.56;;;1.82;54.69
76998;BME280;65930;48.874;10.734;2023-04-06T01:12:10;96208.94;;;1.73;54.13
76998;BME280;65930;48.874;10.734;2023-04-06T01:14:38;96202.13;;;1.80;52.85
76998;BME280;65930;48.874;10.734;2023-04-06T01:17:06;96214.16;;;1.66;53.96
76998;BME280;65930;48.874;10.734;2023-04-06T01:19:36;96204.59;;;1.60;55.19
76998;BME280;65930;48.874;10.734;2023-04-06T01:22:04;96203.47;;;1.49;54.85
76998;BME280;65930;48.874;10.734;2023-04-06T01:24:41;96199.56;;;1.50;55.51
76998;BME280;65930;48.874;10.734;2023-04-06T01:27:09;96191.47;;;1.29;55.70
76998;BME280;65930;48.874;10.734;2023-04-06T01:29:37;96196.56;;;1.31;55.61
76998;BME280;65930;48.874;10.734;2023-04-06T01:32:07;96193.41;;;1.29;55.85
76998;BME280;65930;48.874;10.734;2023-04-06T01:34:36;96192.47;;;1.25;55.76
76998;BME280;65930;48.874;10.734;2023-04-06T01:37:10;96195.53;;;1.23;55.22
76998;BME280;65930;48.874;10.734;2023-04-06T01:39:39;96190.84;;;1.12;55.30
76998;BME280;65930;48.874;10.734;2023-04-06T01:42:07;96187.44;;;1.15;56.05
76998;BME280;65930;48.874;10.734;2023-04-06T01:44:35;96194.16;;;1.17;56.71
76998;BME280;65930;48.874;10.734;2023-04-06T01:47:03;96187.22;;;1.20;56.34
76998;BME280;65930;48.874;10.734;2023-04-06T01:49:31;96187.88;;;1.05;56.18
76998;BME280;65930;48.874;10.734;2023-04-06T01:51:59;96192.63;;;1.08;56.44
76998;BME280;65930;48.874;10.734;2023-04-06T01:54:27;96193.66;;;1.03;56.00
76998;BME280;65930;48.874;10.734;2023-04-06T01:56:59;96184.81;;;1.06;57.27
76998;BME280;65930;48.874;10.734;2023-04-06T01:59:30;96190.13;;;1.03;56.78
76998;BME280;65930;48.874;10.734;2023-04-06T02:01:58;96186.03;;;0.97;56.95
76998;BME280;65930;48.874;10.734;2023-04-06T02:04:26;96190.41;;;0.89;57.26
76998;BME280;65930;48.874;10.734;2023-04-06T02:06:54;96183.78;;;0.78;58.25
76998;BME280;65930;48.874;10.734;2023-04-06T02:09:22;96188.84;;;0.67;58.50
76998;BME280;65930;48.874;10.734;2023-04-06T02:11:50;96195.19;;;0.59;58.84
76998;BME280;65930;48.874;10.734;2023-04-06T02:14:19;96195.91;;;0.68;57.95
76998;BME280;65930;48.874;10.734;2023-04-06T02:16:47;96183.41;;;0.67;57.88
76998;BME280;65930;48.874;10.734;2023-04-06T02:19:21;96187.25;;;0.66;57.53
76998;BME280;65930;48.874;10.734;2023-04-06T02:21:49;96194.31;;;0.67;58.17
76998;BME280;65930;48.874;10.734;2023-04-06T02:24:20;96190.56;;;0.72;58.55
76998;BME280;65930;48.874;10.734;2023-04-06T02:26:48;96191.63;;;0.79;58.24
76998;BME280;65930;48.874;10.734;2023-04-06T02:29:16;96191.97;;;0.57;59.04
76998;BME280;65930;48.874;10.734;2023-04-06T02:31:45;96191.13;;;0.44;59.58
76998;BME280;65930;48.874;10.734;2023-04-06T02:34:16;96175.88;;;0.43;59.31
76998;BME280;65930;48.874;10.734;2023-04-06T02:36:46;96177.56;;;0.36;59.58
76998;BME280;65930;48.874;10.734;2023-04-06T02:39:14;96180.47;;;0.31;60.06
76998;BME280;65930;48.874;10.734;2023-04-06T02:41:42;96181.06;;;0.16;60.41
76998;BME280;65930;48.874;10.734;2023-04-06T02:44:10;96182.38;;;0.10;60.21
76998;BME280;65930;48.874;10.734;2023-04-06T02:46:38;96185.09;;;0.10;60.86
76998;BME280;65930;48.874;10.734;2023-04-06T02:49:07;96178.72;;;0.06;60.71
76998;BME280;65930;48.874;10.734;2023-04-06T02:51:36;96182.19;;;0.15;60.75
76998;BME280;65930;48.874;10.734;2023-04-06T02:54:04;96174.44;;;0.05;60.13
76998;BME280;65930;48.874;10.734;2023-04-06T02:56:32;96176.59;;;0.11;60.08
76998;BME280;65930;48.874;10.734;2023-04-06T02:59:00;96170.34;;;0.11;60.42
76998;BME280;65930;48.874;10.734;2023-04-06T03:01:28;96174.19;;;0.10;59.96
76998;BME280;65930;48.874;10.734;2023-04-06T03:03:56;96174.94;;;0.19;59.95
76998;BME280;65930;48.874;10.734;2023-04-06T03:06:25;96177.03;;;0.22;59.71
76998;BME280;65930;48.874;10.734;2023-04-06T03:08:54;96174.88;;;0.07;60.84
76998;BME280;65930;48.874;10.734;2023-04-06T03:11:22;96176.53;;;0.20;60.31
76998;BME280;65930;48.874;10.734;2023-04-06T03:13:50;96176.03;;;0.26;59.89
76998;BME280;65930;48.874;10.734;2023-04-06T03:16:18;96171.84;;;0.29;60.34
76998;BME280;65930;48.874;10.734;2023-04-06T03:18:46;96187.25;;;0.25;60.04
76998;BME280;65930;48.874;10.734;2023-04-06T03:21:14;96182.91;;;0.24;59.57
76998;BME280;65930;48.874;10.734;2023-04-06T03:23:44;96181.06;;;0.16;60.01
76998;BME280;65930;48.874;10.734;2023-04-06T03:26:12;96188.84;;;0.26;59.53
76998;BME280;65930;48.874;10.734;2023-04-06T03:28:40;96186.59;;;0.28;60.11
76998;BME280;65930;48.874;10.734;2023-04-06T03:31:08;96184.81;;;0.32;59.57
76998;BME280;65930;48.874;10.734;2023-04-06T03:33:36;96187.78;;;0.18;59.89
76998;BME280;65930;48.874;10.734;2023-04-06T03:36:05;96185.66;;;0.24;60.53
76998;BME280;65930;48.874;10.734;2023-04-06T03:38:34;96187.00;;;0.18;60.49
76998;BME280;65930;48.874;10.734;2023-04-06T03:41:06;96185.91;;;0.10;61.06
76998;BME280;65930;48.874;10.734;2023-04-06T03:43:34;96187.25;;;0.04;61.02
76998;BME280;65930;48.874;10.734;2023-04-06T03:46:02;96174.81;;;-0.06;61.58
76998;BME280;65930;48.874;10.734;2023-04-06T03:48:37;96172.44;;;-0.16;61.32
76998;BME280;65930;48.874;10.734;2023-04-06T03:51:06;96191.22;;;-0.23;61.56
76998;BME280;65930;48.874;10.734;2023-04-06T03:53:34;96181.22;;;-0.10;61.73
76998;BME280;65930;48.874;10.734;2023-04-06T03:56:04;96188.78;;;-0.16;61.12
76998;BME280;65930;48.874;10.734;2023-04-06T03:58:33;96195.03;;;-0.15;62.09
76998;BME280;65930;48.874;10.734;2023-04-06T04:01:01;96194.84;;;-0.10;61.08
76998;BME280;65930;48.874;10.734;2023-04-06T04:03:29;96184.53;;;-0.05;61.56
76998;BME280;65930;48.874;10.734;2023-04-06T04:05:57;96192.94;;;-0.10;61.73
76998;BME280;65930;48.874;10.734;2023-04-06T04:08:25;96187.25;;;-0.05;61.44
76998;BME280;65930;48.874;10.734;2023-04-06T04:10:53;96191.59;;;-0.04;61.44
76998;BME280;65930;48.874;10.734;2023-04-06T04:13:21;96192.25;;;-0.07;61.88
76998;BME280;65930;48.874;10.734;2023-04-06T04:15:51;96197.41;;;-0.14;61.30
76998;BME280;65930;48.874;10.734;2023-04-06T04:18:28;96191.97;;;-0.14;61.78
76998;BME280;65930;48.874;10.734;2023-04-06T04:20:56;96196.16;;;-0.16;61.77
76998;BME280;65930;48.874;10.734;2023-04-06T04:23:24;96188.78;;;-0.16;62.16
76998;BME280;65930;48.874;10.734;2023-04-06T04:25:55;96192.19;;;-0.19;62.39
76998;BME280;65930;48.874;10.734;2023-04-06T04:28:25;96192.34;;;-0.24;61.68
76998;BME280;65930;48.874;10.734;2023-04-06T04:30:55;96191.94;;;-0.05;61.04
76998;BME280;65930;48.874;10.734;2023-04-06T04:33:23;96193.38;;;-0.08;61.16
76998;BME280;65930;48.874;10.734;2023-04-06T04:35:51;96193.44;;;-0.16;62.02
76998;BME280;65930;48.874;10.734;2023-04-06T04:38:22;96197.56;;;-0.10;61.73
76998;BME280;65930;48.874;10.734;2023-04-06T04:40:50;96197.75;;;-0.15;61.35
76998;BME280;65930;48.874;10.734;2023-04-06T04:43:18;96197.63;;;-0.27;61.74
76998;BME280;65930;48.874;10.734;2023-04-06T04:45:46;96194.41;;;-0.21;61.77
76998;BME280;65930;48.874;10.734;2023-04-06T04:48:21;96203.47;;;-0.08;61.17
76998;BME280;65930;48.874;10.734;2023-04-06T04:50:49;96197.88;;;-0.12;61.01
76998;BME280;65930;48.874;10.734;2023-04-06T04:53:17;96206.06;;;-0.12;61.69
76998;BME280;65930;48.874;10.734;2023-04-06T04:55:45;96204.63;;;-0.18;61.55
76998;BME280;65930;48.874;10.734;2023-04-06T04:58:13;96204.94;;;-0.11;61.29
76998;BME280;65930;48.874;10.734;2023-04-06T05:00:43;96207.66;;;-0.11;61.72
76998;BME280;65930;48.874;10.734;2023-04-06T05:03:20;96210.44;;;-0.19;62.00
76998;BME280;65930;48.874;10.734;2023-04-06T05:05:50;96208.28;;;-0.14;61.19
76998;BME280;65930;48.874;10.734;2023-04-06T05:08:18;96211.19;;;-0.10;61.02
76998;BME280;65930;48.874;10.734;2023-04-06T05:10:47;96208.28;;;-0.05;61.76
76998;BME280;65930;48.874;10.734;2023-04-06T05:13:15;96209.16;;;0.08;61.38
76998;BME280;65930;48.874;10.734;2023-04-06T05:15:43;96210.09;;;0.12;60.81
76998;BME280;65930;48.874;10.734;2023-04-06T05:18:12;96205.63;;;0.07;60.50
76998;BME280;65930;48.874;10.734;2023-04-06T05:20:40;96203.59;;;0.04;60.81
76998;BME280;65930;48.874;10.734;2023-04-06T05:23:09;96208.03;;;0.09;61.22
76998;BME280;65930;48.874;10.734;2023-04-06T05:25:37;96207.31;;;0.20;61.02
76998;BME280;65930;48.874;10.734;2023-04-06T05:28:05;96211.50;;;0.18;60.07
76998;BME280;65930;48.874;10.734;2023-04-06T05:30:33;96207.19;;;0.17;61.01
76998;BME280;65930;48.874;10.734;2023-04-06T05:33:05;96211.97;;;0.20;60.67
76998;BME280;65930;48.874;10.734;2023-04-06T05:35:36;96217.41;;;0.20;60.47
76998;BME280;65930;48.874;10.734;2023-04-06T05:38:09;96216.75;;;0.23;60.23
76998;BME280;65930;48.874;10.734;2023-04-06T05:40:37;96223.16;;;0.27;60.19
76998;BME280;65930;48.874;10.734;2023-04-06T05:43:07;96213.84;;;0.28;60.02
76998;BME280;65930;48.874;10.734;2023-04-06T05:45:43;96212.06;;;0.32;60.59
76998;BME280;65930;48.874;10.734;2023-04-06T05:48:11;96212.13;;;0.44;59.38
76998;BME280;65930;48.874;10.734;2023-04-06T05:50:39;96223.16;;;0.48;59.86
76998;BME280;65930;48.874;10.734;2023-04-06T05:53:07;96221.56;;;0.67;59.03
76998;BME280;65930;48.874;10.734;2023-04-06T05:55:37;96218.44;;;0.77;58.66
76998;BME280;65930;48.874;10.734;2023-04-06T05:58:05;96221.09;;;0.86;58.44
76998;BME280;65930;48.874;10.734;2023-04-06T06:00:35;96219.41;;;0.94;57.82
76998;BME280;65930;48.874;10.734;2023-04-06T06:03:03;96225.34;;;0.96;58.66
76998;BME280;65930;48.874;10.734;2023-04-06T06:05:32;96224.59;;;1.07;58.15
76998;BME280;65930;48.874;10.734;2023-04-06T06:08:00;96230.63;;;1.13;57.19
76998;BME280;65930;48.874;10.734;2023-04-06T06:10:29;96228.16;;;1.20;58.25
76998;BME280;65930;48.874;10.734;2023-04-06T06:12:59;96225.94;;;1.34;57.47
76998;BME280;65930;48.874;10.734;2023-04-06T06:15:29;96237.50;;;1.31;57.45
76998;BME280;65930;48.874;10.734;2023-04-06T06:17:57;96231.75;;;1.45;57.30
76998;BME280;65930;48.874;10.734;2023-04-06T06:20:26;96233.25;;;1.54;57.09
76998;BME280;65930;48.874;10.734;2023-04-06T06:22:54;96230.06;;;1.52;56.64
76998;BME280;65930;48.874;10.734;2023-04-06T06:25:22;96230.31;;;1.59;57.28
76998;BME280;65930;48.874;10.734;2023-04-06T06:27:53;96232.97;;;1.68;56.62
76998;BME280;65930;48.874;10.734;2023-04-06T06:30:22;96239.44;;;1.75;56.68
76998;BME280;65930;48.874;10.734;2023-04-06T06:32:51;96228.19;;;1.89;55.27
76998;BME280;65930;48.874;10.734;2023-04-06T06:35:19;96226.25;;;1.90;55.64
76998;BME280;65930;48.874;10.734;2023-04-06T06:37:48;96233.19;;;1.87;55.46
76998;BME280;65930;48.874;10.734;2023-04-06T06:40:19;96236.28;;;1.98;55.66
76998;BME280;65930;48.874;10.734;2023-04-06T06:42:50;96238.31;;;2.01;55.49
76998;BME280;65930;48.874;10.734;2023-04-06T06:45:19;96240.13;;;1.97;55.96
76998;BME280;65930;48.874;10.734;2023-04-06T06:47:48;96239.94;;;2.14;56.21
76998;BME280;65930;48.874;10.734;2023-04-06T06:50:20;96240.94;;;2.34;56.06
76998;BME280;65930;48.874;10.734;2023-04-06T06:52:48;96236.03;;;2.51;54.61
76998;BME280;65930;48.874;10.734;2023-04-06T06:55:17;96239.00;;;2.46;55.73
76998;BME280;65930;48.874;10.734;2023-04-06T06:57:46;96241.47;;;2.63;53.86
76998;BME280;65930;48.874;10.734;2023-04-06T07:00:15;96248.16;;;2.78;54.13
76998;BME280;65930;48.874;10.734;2023-04-06T07:02:48;96242.97;;;3.01;54.39
76998;BME280;65930;48.874;10.734;2023-04-06T07:05:17;96244.50;;;3.14;54.31
76998;BME280;65930;48.874;10.734;2023-04-06T07:07:54;96249.16;;;3.26;54.06
76998;BME280;65930;48.874;10.734;2023-04-06T07:10:29;96246.28;;;3.22;54.22
76998;BME280;65930;48.874;10.734;2023-04-06T07:12:57;96250.47;;;3.32;54.21
76998;BME280;65930;48.874;10.734;2023-04-06T07:15:25;96248.63;;;3.64;54.46
76998;BME280;65930;48.874;10.734;2023-04-06T07:17:54;96253.81;;;3.96;53.69
76998;BME280;65930;48.874;10.734;2023-04-06T07:20:22;96252.81;;;4.20;52.74
76998;BME280;65930;48.874;10.734;2023-04-06T07:22:59;96251.75;;;4.25;52.19
76998;BME280;65930;48.874;10.734;2023-04-06T07:25:27;96245.97;;;4.30;52.85
76998;BME280;65930;48.874;10.734;2023-04-06T07:27:55;96246.16;;;4.37;52.70
76998;BME280;65930;48.874;10.734;2023-04-06T07:30:26;96251.84;;;4.13;53.44
76998;BME280;65930;48.874;10.734;2023-04-06T07:32:59;96250.41;;;4.34;53.65
76998;BME280;65930;48.874;10.734;2023-04-06T07:35:27;96250.31;;;4.47;52.64
76998;BME280;65930;48.874;10.734;2023-04-06T07:37:57;96251.31;;;4.38;52.92
76998;BME280;65930;48.874;10.734;2023-04-06T07:40:25;96244.75;;;4.78;53.41
76998;BME280;65930;48.874;10.734;2023-04-06T07:42:54;96246.81;;;5.00;53.02
76998;BME280;65930;48.874;10.734;2023-04-06T07:45:23;96253.19;;;5.23;52.88
76998;BME280;65930;48.874;10.734;2023-04-06T07:47:54;96245.09;;;5.30;52.77
76998;BME280;65930;48.874;10.734;2023-04-06T07:50:23;96256.38;;;5.45;51.69
76998;BME280;65930;48.874;10.734;2023-04-06T07:52:51;96253.59;;;5.64;50.18
76998;BME280;65930;48.874;10.734;2023-04-06T07:57:54;96246.09;;;6.03;48.28
76998;BME280;65930;48.874;10.734;2023-04-06T08:00:28;96244.28;;;5.68;47.53
76998;BME280;65930;48.874;10.734;2023-04-06T08:02:56;96247.06;;;5.91;47.43
76998;BME280;65930;48.874;10.734;2023-04-06T08:05:26;96250.81;;;6.25;46.80
76998;BME280;65930;48.874;10.734;2023-04-06T08:07:54;96247.91;;;6.41;46.14
76998;BME280;65930;48.874;10.734;2023-04-06T08:10:22;96244.78;;;6.42;47.17
76998;BME280;65930;48.874;10.734;2023-04-06T08:12:50;96244.84;;;6.46;45.50
76998;BME280;65930;48.874;10.734;2023-04-06T08:15:18;96245.81;;;6.57;46.26
76998;BME280;65930;48.874;10.734;2023-04-06T08:17:46;96246.97;;;6.56;45.98
76998;BME280;65930;48.874;10.734;2023-04-06T08:20:17;96245.53;;;6.92;45.59
76998;BME280;65930;48.874;10.734;2023-04-06T08:22:46;96246.28;;;6.89;44.60
76998;BME280;65930;48.874;10.734;2023-04-06T08:25:18;96246.06;;;7.31;44.75
76998;BME280;65930;48.874;10.734;2023-04-06T08:27:46;96244.56;;;7.07;43.12
76998;BME280;65930;48.874;10.734;2023-04-06T08:30:14;96250.03;;;6.77;43.86
76998;BME280;65930;48.874;10.734;2023-04-06T08:32:46;96249.28;;;7.36;42.62
76998;BME280;65930;48.874;10.734;2023-04-06T08:35:14;96252.09;;;7.73;42.09
76998;BME280;65930;48.874;10.734;2023-04-06T08:37:42;96243.13;;;7.46;43.35
76998;BME280;65930;48.874;10.734;2023-04-06T08:40:12;96246.53;;;7.70;42.05
76998;BME280;65930;48.874;10.734;2023-04-06T08:42:44;96248.25;;;7.85;41.87
76998;BME280;65930;48.874;10.734;2023-04-06T08:45:16;96246.28;;;7.48;42.36
76998;BME280;65930;48.874;10.734;2023-04-06T08:47:46;96248.31;;;7.22;42.89
76998;BME280;65930;48.874;10.734;2023-04-06T08:50:16;96248.00;;;7.00;42.57
76998;BME280;65930;48.874;10.734;2023-04-06T08:52:47;96243.06;;;6.83;43.14
76998;BME280;65930;48.874;10.734;2023-04-06T08:55:17;96246.28;;;6.89;42.94
76998;BME280;65930;48.874;10.734;2023-04-06T08:57:48;96248.06;;;6.78;43.13
76998;BME280;65930;48.874;10.734;2023-04-06T09:00:18;96257.03;;;6.97;42.71
76998;BME280;65930;48.874;10.734;2023-04-06T09:02:49;96248.72;;;6.94;42.34
76998;BME280;65930;48.874;10.734;2023-04-06T09:05:17;96253.00;;;6.91;43.03
76998;BME280;65930;48.874;10.734;2023-04-06T09:07:46;96244.59;;;7.11;42.15
76998;BME280;65930;48.874;10.734;2023-04-06T09:10:18;96245.13;;;7.20;41.28
76998;BME280;65930;48.874;10.734;2023-04-06T09:12:47;96252.56;;;7.16;41.51
76998;BME280;65930;48.874;10.734;2023-04-06T09:15:21;96245.50;;;7.18;41.04
76998;BME280;65930;48.874;10.734;2023-04-06T09:17:50;96244.47;;;7.30;40.41
76998;BME280;65930;48.874;10.734;2023-04-06T09:20:25;96248.53;;;7.39;39.49
76998;BME280;65930;48.874;10.734;2023-04-06T09:22:55;96247.56;;;7.95;39.00
76998;BME280;65930;48.874;10.734;2023-04-06T09:25:27;96245.09;;;8.67;39.78
76998;BME280;65930;48.874;10.734;2023-04-06T09:28:01;96248.38;;;8.87;38.70
76998;BME280;65930;48.874;10.734;2023-04-06T09:30:29;96244.88;;;8.90;38.53
76998;BME280;65930;48.874;10.734;2023-04-06T09:32:58;96249.34;;;9.19;39.58
76998;BME280;65930;48.874;10.734;2023-04-06T09:35:26;96246.09;;;9.00;39.39
76998;BME280;65930;48.874;10.734;2023-04-06T09:37:57;96248.91;;;8.52;41.10
76998;BME280;65930;48.874;10.734;2023-04-06T09:40:26;96245.06;;;9.29;38.87
76998;BME280;65930;48.874;10.734;2023-04-06T09:42:55;96242.44;;;9.57;39.17
76998;BME280;65930;48.874;10.734;2023-04-06T09:45:29;96237.69;;;9.61;38.30
76998;BME280;65930;48.874;10.734;2023-04-06T09:47:58;96238.16;;;8.91;38.52
76998;BME280;65930;48.874;10.734;2023-04-06T09:50:30;96227.75;;;8.70;38.81
76998;BME280;65930;48.874;10.734;2023-04-06T09:53:01;96237.13;;;8.15;38.58
76998;BME280;65930;48.874;10.734;2023-04-06T09:55:36;96241.72;;;8.40;38.13
76998;BME280;65930;48.874;10.734;2023-04-06T09:58:16;96231.31;;;8.71;37.47
76998;BME280;65930;48.874;10.734;2023-04-06T10:01:03;96231.22;;;9.18;39.40
76998;BME280;65930;48.874;10.734;2023-04-06T10:03:45;96231.47;;;8.41;36.83
76998;BME280;65930;48.874;10.734;2023-04-06T10:06:23;96237.06;;;8.48;38.08
76998;BME280;65930;48.874;10.734;2023-04-06T10:08:55;96229.28;;;9.26;36.32
76998;BME280;65930;48.874;10.734;2023-04-06T10:11:29;96231.34;;;9.50;35.91
76998;BME280;65930;48.874;10.734;2023-04-06T10:13:58;96222.41;;;9.99;36.72
76998;BME280;65930;48.874;10.734;2023-04-06T10:16:26;96221.47;;;9.49;35.42
76998;BME280;65930;48.874;10.734;2023-04-06T10:19:04;96213.16;;;9.42;36.56
76998;BME280;65930;48.874;10.734;2023-04-06T10:21:39;96214.13;;;8.99;35.17
76998;BME280;65930;48.874;10.734;2023-04-06T10:24:12;96212.91;;;8.96;35.14
76998;BME280;65930;48.874;10.734;2023-04-06T10:26:41;96207.44;;;9.07;35.47
76998;BME280;65930;48.874;10.734;2023-04-06T10:29:09;96207.44;;;9.00;35.06
76998;BME280;65930;48.874;10.734;2023-04-06T10:31:41;96209.38;;;8.96;36.15
76998;BME280;65930;48.874;10.734;2023-04-06T10:34:10;96206.97;;;9.84;35.36
76998;BME280;65930;48.874;10.734;2023-04-06T10:36:39;96202.66;;;9.97;33.18
76998;BME280;65930;48.874;10.734;2023-04-06T10:39:07;96194.00;;;10.20;31.83
76998;BME280;65930;48.874;10.734;2023-04-06T10:41:36;96201.75;;;9.58;33.48
76998;BME280;65930;48.874;10.734;2023-04-06T10:44:17;96202.22;;;9.95;31.32
76998;BME280;65930;48.874;10.734;2023-04-06T10:46:55;96200.16;;;9.53;32.28
76998;BME280;65930;48.874;10.734;2023-04-06T10:49:25;96197.38;;;9.46;32.91
76998;BME280;65930;48.874;10.734;2023-04-06T10:51:54;96198.88;;;9.29;31.73
76998;BME280;65930;48.874;10.734;2023-04-06T10:54:25;96201.28;;;9.38;33.12
76998;BME280;65930;48.874;10.734;2023-04-06T10:56:53;96204.50;;;9.54;33.31
76998;BME280;65930;48.874;10.734;2023-04-06T10:59:24;96204.88;;;9.49;31.84
76998;BME280;65930;48.874;10.734;2023-04-06T11:01:56;96199.72;;;9.37;31.60
76998;BME280;65930;48.874;10.734;2023-04-06T11:04:25;96198.91;;;9.37;35.50
76998;BME280;65930;48.874;10.734;2023-04-06T11:06:53;96194.25;;;9.58;33.01
76998;BME280;65930;48.874;10.734;2023-04-06T11:09:24;96197.53;;;8.95;33.94
76998;BME280;65930;48.874;10.734;2023-04-06T11:11:54;96204.16;;;8.83;31.82
76998;BME280;65930;48.874;10.734;2023-04-06T11:14:24;96196.31;;;9.97;31.17
76998;BME280;65930;48.874;10.734;2023-04-06T11:17:03;96193.41;;;9.47;32.23
76998;BME280;65930;48.874;10.734;2023-04-06T11:19:31;96188.72;;;9.55;32.63
76998;BME280;65930;48.874;10.734;2023-04-06T11:22:06;96189.16;;;9.82;31.78
76998;BME280;65930;48.874;10.734;2023-04-06T11:24:34;96180.47;;;9.87;31.82
76998;BME280;65930;48.874;10.734;2023-04-06T11:27:02;96191.75;;;9.25;32.01
76998;BME280;65930;48.874;10.734;2023-04-06T11:29:32;96183.88;;;9.27;32.44
76998;BME280;65930;48.874;10.734;2023-04-06T11:32:05;96174.41;;;9.35;33.98
76998;BME280;65930;48.874;10.734;2023-04-06T11:34:36;96176.09;;;9.68;33.08
76998;BME280;65930;48.874;10.734;2023-04-06T11:37:08;96191.53;;;9.87;33.56
76998;BME280;65930;48.874;10.734;2023-04-06T11:39:38;96186.88;;;10.19;32.45
76998;BME280;65930;48.874;10.734;2023-04-06T11:42:06;96185.31;;;10.39;32.76
76998;BME280;65930;48.874;10.734;2023-04-06T11:44:38;96184.09;;;10.47;33.07
76998;BME280;65930;48.874;10.734;2023-04-06T11:47:11;96177.69;;;10.93;32.36
76998;BME280;65930;48.874;10.734;2023-04-06T11:49:41;96171.06;;;10.44;32.63
76998;BME280;65930;48.874;10.734;2023-04-06T11:52:17;96175.34;;;9.82;33.19
76998;BME280;65930;48.874;10.734;2023-04-06T11:54:46;96171.88;;;10.31;33.82
76998;BME280;65930;48.874;10.734;2023-04-06T11:57:16;96163.50;;;10.13;34.18
76998;BME280;65930;48.874;10.734;2023-04-06T11:59:46;96162.75;;;10.16;33.83
76998;BME280;65930;48.874;10.734;2023-04-06T12:02:14;96161.13;;;10.82;34.21
76998;BME280;65930;48.874;10.734;2023-04-06T12:04:42;96154.56;;;11.38;34.37
76998;BME280;65930;48.874;10.734;2023-04-06T12:07:13;96152.72;;;11.90;33.43
76998;BME280;65930;48.874;10.734;2023-04-06T12:09:44;96142.78;;;11.17;32.70
76998;BME280;65930;48.874;10.734;2023-04-06T12:12:12;96154.03;;;10.64;33.20
76998;BME280;65930;48.874;10.734;2023-04-06T12:14:40;96145.25;;;10.93;33.44
76998;BME280;65930;48.874;10.734;2023-04-06T12:17:09;96154.84;;;10.39;34.23
76998;BME280;65930;48.874;10.734;2023-04-06T12:19:43;96154.03;;;10.18;34.94
76998;BME280;65930;48.874;10.734;2023-04-06T12:22:11;96146.16;;;10.20;34.84
76998;BME280;65930;48.874;10.734;2023-04-06T12:24:48;96149.19;;;9.58;34.48
76998;BME280;65930;48.874;10.734;2023-04-06T12:27:16;96143.16;;;9.24;35.00
76998;BME280;65930;48.874;10.734;2023-04-06T12:29:44;96144.09;;;9.74;35.94
76998;BME280;65930;48.874;10.734;2023-04-06T12:32:13;96135.03;;;9.91;36.10
76998;BME280;65930;48.874;10.734;2023-04-06T12:34:41;96139.81;;;10.26;36.32
76998;BME280;65930;48.874;10.734;2023-04-06T12:37:12;96135.81;;;9.81;34.73
76998;BME280;65930;48.874;10.734;2023-04-06T12:39:42;96137.38;;;9.61;35.75
76998;BME280;65930;48.874;10.734;2023-04-06T12:42:11;96138.88;;;9.37;35.66
76998;BME280;65930;48.874;10.734;2023-04-06T12:44:40;96128.22;;;9.39;36.34
76998;BME280;65930;48.874;10.734;2023-04-06T12:47:09;96127.50;;;9.78;34.70
76998;BME280;65930;48.874;10.734;2023-04-06T12:49:42;96122.41;;;10.29;34.96
76998;BME280;65930;48.874;10.734;2023-04-06T12:52:10;96135.06;;;10.44;33.91
76998;BME280;65930;48.874;10.734;2023-04-06T12:54:38;96129.53;;;10.16;35.82
76998;BME280;65930;48.874;10.734;2023-04-06T12:57:06;96125.19;;;10.19;34.88
76998;BME280;65930;48.874;10.734;2023-04-06T12:59:34;96140.94;;;10.64;35.19
76998;BME280;65930;48.874;10.734;2023-04-06T13:02:06;96123.56;;;10.46;34.35
76998;BME280;65930;48.874;10.734;2023-04-06T13:04:35;96128.66;;;10.69;34.27
76998;BME280;65930;48.874;10.734;2023-04-06T13:07:04;96129.91;;;10.43;34.62
76998;BME280;65930;48.874;10.734;2023-04-06T13:09:32;96121.16;;;10.66;36.10
76998;BME280;65930;48.874;10.734;2023-04-06T13:12:08;96123.09;;;10.83;34.80